sensor_id;sensor_type;location;lat;lon;timestamp;P1;durP1;ratioP1;P2;durP2;ratioP2
583;SDS011;27024;54.068;12.116;2023-08-01T00:01:48;11.88;;;6.75;;
583;SDS011;27024;54.068;12.116;2023-08-01T00:04:15;12.40;;;6.63;;
583;SDS011;27024;54.068;12.116;2023-08-01T00:06:42;9.75;;;6.35;;
583;SDS011;27024;54.068;12.116;2023-08-01T00:09:09;10.63;;;6.18;;
583;SDS011;27024;54.068;12.116;2023-08-01T00:11:36;11.60;;;6.18;;
583;SDS011;27024;54.068;12.116;2023-08-01T00:14:03;11.82;;;6.10;;
583;SDS011;27024;54.068;12.116;2023-08-01T00:16:30;10.60;;;5.90;;
583;SDS011;27024;54.068;12.116;2023-08-01T00:18:58;11.50;;;6.05;;
583;SDS011;27024;54.068;12.116;2023-08-01T00:21:26;9.65;;;5.55;;
583;SDS011;27024;54.068;12.116;2023-08-01T00:23:52;10.93;;;5.88;;
583;SDS011;27024;54.068;12.116;2023-08-01T00:26:19;10.25;;;6.00;;
583;SDS011;27024;54.068;12.116;2023-08-01T00:28:46;10.05;;;5.85;;
583;SDS011;27024;54.068;12.116;2023-08-01T00:31:13;10.07;;;5.38;;
583;SDS011;27024;54.068;12.116;2023-08-01T00:33:40;9.65;;;5.50;;
583;SDS011;27024;54.068;12.116;2023-08-01T00:36:07;9.70;;;5.47;;
583;SDS011;27024;54.068;12.116;2023-08-01T00:38:36;9.68;;;4.97;;
583;SDS011;27024;54.068;12.116;2023-08-01T00:41:03;10.10;;;5.30;;
583;SDS011;27024;54.068;12.116;2023-08-01T00:43:30;9.93;;;5.03;;
583;SDS011;27024;54.068;12.116;2023-08-01T00:45:58;8.05;;;4.60;;
583;SDS011;27024;54.068;12.116;2023-08-01T00:48:28;8.25;;;4.68;;
583;SDS011;27024;54.068;12.116;2023-08-01T00:50:56;7.65;;;4.60;;
583;SDS011;27024;54.068;12.116;2023-08-01T00:53:24;7.28;;;3.97;;
583;SDS011;27024;54.068;12.116;2023-08-01T00:55:51;7.28;;;4.20;;
583;SDS011;27024;54.068;12.116;2023-08-01T00:58:22;8.20;;;4.15;;
583;SDS011;27024;54.068;12.116;2023-08-01T01:00:49;7.05;;;4.03;;
583;SDS011;27024;54.068;12.116;2023-08-01T01:03:16;7.90;;;3.80;;
583;SDS011;27024;54.068;12.116;2023-08-01T01:05:49;7.25;;;3.42;;
583;SDS011;27024;54.068;12.116;2023-08-01T01:08:22;7.20;;;3.53;;
583;SDS011;27024;54.068;12.116;2023-08-01T01:10:49;5.13;;;3.22;;
583;SDS011;27024;54.068;12.116;2023-08-01T01:13:16;5.53;;;3.22;;
583;SDS011;27024;54.068;12.116;2023-08-01T01:15:43;6.20;;;3.10;;
583;SDS011;27024;54.068;12.116;2023-08-01T01:18:13;6.07;;;3.15;;
583;SDS011;27024;54.068;12.116;2023-08-01T01:20:40;4.68;;;2.47;;
583;SDS011;27024;54.068;12.116;2023-08-01T01:23:07;4.90;;;2.83;;
583;SDS011;27024;54.068;12.116;2023-08-01T01:25:35;5.60;;;2.75;;
583;SDS011;27024;54.068;12.116;2023-08-01T01:28:04;4.18;;;2.50;;
583;SDS011;27024;54.068;12.116;2023-08-01T01:30:32;4.03;;;2.40;;
583;SDS011;27024;54.068;12.116;2023-08-01T01:33:00;3.70;;;1.92;;
583;SDS011;27024;54.068;12.116;2023-08-01T01:35:28;4.07;;;2.10;;
583;SDS011;27024;54.068;12.116;2023-08-01T01:37:55;4.15;;;2.15;;
583;SDS011;27024;54.068;12.116;2023-08-01T01:40:22;6.50;;;2.08;;
583;SDS011;27024;54.068;12.116;2023-08-01T01:42:48;3.35;;;1.88;;
583;SDS011;27024;54.068;12.116;2023-08-01T01:45:15;4.75;;;1.80;;
583;SDS011;27024;54.068;12.116;2023-08-01T01:47:42;4.32;;;1.73;;
583;SDS011;27024;54.068;12.116;2023-08-01T01:50:09;3.38;;;1.85;;
583;SDS011;27024;54.068;12.116;2023-08-01T01:52:36;3.90;;;1.83;;
583;SDS011;27024;54.068;12.116;2023-08-01T01:55:03;3.97;;;1.90;;
583;SDS011;27024;54.068;12.116;2023-08-01T01:57:30;4.03;;;2.03;;
583;SDS011;27024;54.068;12.116;2023-08-01T01:59:57;4.82;;;1.95;;
583;SDS011;27024;54.068;12.116;2023-08-01T02:02:24;4.90;;;1.92;;
583;SDS011;27024;54.068;12.116;2023-08-01T02:04:51;4.47;;;2.00;;
583;SDS011;27024;54.068;12.116;2023-08-01T02:07:18;3.10;;;1.77;;
583;SDS011;27024;54.068;12.116;2023-08-01T02:09:45;3.90;;;1.55;;
583;SDS011;27024;54.068;12.116;2023-08-01T02:12:12;4.20;;;1.58;;
583;SDS011;27024;54.068;12.116;2023-08-01T02:14:42;3.35;;;1.27;;
583;SDS011;27024;54.068;12.116;2023-08-01T02:17:09;3.70;;;1.63;;
583;SDS011;27024;54.068;12.116;2023-08-01T02:19:36;3.58;;;1.48;;
583;SDS011;27024;54.068;12.116;2023-08-01T02:22:02;2.50;;;1.40;;
583;SDS011;27024;54.068;12.116;2023-08-01T02:24:29;3.20;;;1.45;;
583;SDS011;27024;54.068;12.116;2023-08-01T02:26:56;3.58;;;1.60;;
583;SDS011;27024;54.068;12.116;2023-08-01T02:29:23;5.32;;;1.83;;
583;SDS011;27024;54.068;12.116;2023-08-01T02:31:51;4.07;;;1.65;;
583;SDS011;27024;54.068;12.116;2023-08-01T02:34:18;3.03;;;1.30;;
583;SDS011;27024;54.068;12.116;2023-08-01T02:36:45;4.03;;;1.60;;
583;SDS011;27024;54.068;12.116;2023-08-01T02:39:12;2.63;;;1.27;;
583;SDS011;27024;54.068;12.116;2023-08-01T02:41:39;3.42;;;1.65;;
583;SDS011;27024;54.068;12.116;2023-08-01T02:44:05;2.90;;;1.70;;
583;SDS011;27024;54.068;12.116;2023-08-01T02:46:32;3.28;;;1.60;;
583;SDS011;27024;54.068;12.116;2023-08-01T02:48:59;3.53;;;1.70;;
583;SDS011;27024;54.068;12.116;2023-08-01T02:51:26;4.25;;;1.55;;
583;SDS011;27024;54.068;12.116;2023-08-01T02:53:53;3.40;;;1.90;;
583;SDS011;27024;54.068;12.116;2023-08-01T02:56:20;3.10;;;1.10;;
583;SDS011;27024;54.068;12.116;2023-08-01T02:58:46;5.93;;;1.65;;
583;SDS011;27024;54.068;12.116;2023-08-01T03:01:13;3.15;;;1.50;;
583;SDS011;27024;54.068;12.116;2023-08-01T03:03:40;3.85;;;1.40;;
583;SDS011;27024;54.068;12.116;2023-08-01T03:06:08;4.03;;;1.40;;
583;SDS011;27024;54.068;12.116;2023-08-01T03:08:35;4.25;;;1.48;;
583;SDS011;27024;54.068;12.116;2023-08-01T03:11:01;3.10;;;1.27;;
583;SDS011;27024;54.068;12.116;2023-08-01T03:13:28;3.33;;;1.20;;
583;SDS011;27024;54.068;12.116;2023-08-01T03:15:55;3.67;;;1.20;;
583;SDS011;27024;54.068;12.116;2023-08-01T03:18:22;2.97;;;1.20;;
583;SDS011;27024;54.068;12.116;2023-08-01T03:20:49;3.13;;;1.23;;
583;SDS011;27024;54.068;12.116;2023-08-01T03:23:16;4.03;;;1.52;;
583;SDS011;27024;54.068;12.116;2023-08-01T03:25:43;3.35;;;1.30;;
583;SDS011;27024;54.068;12.116;2023-08-01T03:28:10;3.78;;;1.30;;
583;SDS011;27024;54.068;12.116;2023-08-01T03:30:37;3.42;;;1.60;;
583;SDS011;27024;54.068;12.116;2023-08-01T03:33:04;3.80;;;1.50;;
583;SDS011;27024;54.068;12.116;2023-08-01T03:35:31;3.80;;;1.50;;
583;SDS011;27024;54.068;12.116;2023-08-01T03:37:58;4.88;;;1.40;;
583;SDS011;27024;54.068;12.116;2023-08-01T03:40:25;3.30;;;1.58;;
583;SDS011;27024;54.068;12.116;2023-08-01T03:42:52;2.40;;;1.20;;
583;SDS011;27024;54.068;12.116;2023-08-01T03:45:19;2.85;;;1.40;;
583;SDS011;27024;54.068;12.116;2023-08-01T03:47:49;3.15;;;1.50;;
583;SDS011;27024;54.068;12.116;2023-08-01T03:50:15;6.07;;;1.42;;
583;SDS011;27024;54.068;12.116;2023-08-01T03:52:42;4.25;;;1.83;;
583;SDS011;27024;54.068;12.116;2023-08-01T03:55:09;5.13;;;1.90;;
583;SDS011;27024;54.068;12.116;2023-08-01T03:57:36;4.00;;;1.80;;
583;SDS011;27024;54.068;12.116;2023-08-01T04:00:05;3.20;;;1.75;;
583;SDS011;27024;54.068;12.116;2023-08-01T04:02:40;3.25;;;1.70;;
583;SDS011;27024;54.068;12.116;2023-08-01T04:05:10;6.15;;;1.98;;
583;SDS011;27024;54.068;12.116;2023-08-01T04:07:37;4.32;;;1.98;;
583;SDS011;27024;54.068;12.116;2023-08-01T04:10:04;7.38;;;1.77;;
583;SDS011;27024;54.068;12.116;2023-08-01T04:12:32;6.45;;;1.90;;
583;SDS011;27024;54.068;12.116;2023-08-01T04:15:00;3.47;;;1.50;;
583;SDS011;27024;54.068;12.116;2023-08-01T04:17:27;4.13;;;1.83;;
583;SDS011;27024;54.068;12.116;2023-08-01T04:19:56;4.30;;;1.70;;
583;SDS011;27024;54.068;12.116;2023-08-01T04:22:23;3.42;;;1.92;;
583;SDS011;27024;54.068;12.116;2023-08-01T04:24:49;4.82;;;2.00;;
583;SDS011;27024;54.068;12.116;2023-08-01T04:27:17;4.38;;;2.17;;
583;SDS011;27024;54.068;12.116;2023-08-01T04:29:44;4.72;;;2.40;;
583;SDS011;27024;54.068;12.116;2023-08-01T04:32:11;4.78;;;2.72;;
583;SDS011;27024;54.068;12.116;2023-08-01T04:34:41;4.90;;;2.65;;
583;SDS011;27024;54.068;12.116;2023-08-01T04:37:08;6.90;;;3.10;;
583;SDS011;27024;54.068;12.116;2023-08-01T04:39:36;6.63;;;3.30;;
583;SDS011;27024;54.068;12.116;2023-08-01T04:42:03;6.18;;;3.13;;
583;SDS011;27024;54.068;12.116;2023-08-01T04:44:31;7.15;;;3.40;;
583;SDS011;27024;54.068;12.116;2023-08-01T04:46:58;4.32;;;2.92;;
583;SDS011;27024;54.068;12.116;2023-08-01T04:49:25;5.45;;;3.13;;
583;SDS011;27024;54.068;12.116;2023-08-01T04:51:51;8.48;;;3.45;;
583;SDS011;27024;54.068;12.116;2023-08-01T04:54:18;6.60;;;3.40;;
583;SDS011;27024;54.068;12.116;2023-08-01T04:56:45;5.72;;;3.45;;
583;SDS011;27024;54.068;12.116;2023-08-01T04:59:12;5.70;;;2.92;;
583;SDS011;27024;54.068;12.116;2023-08-01T05:01:39;6.53;;;3.13;;
583;SDS011;27024;54.068;12.116;2023-08-01T05:04:06;5.78;;;3.50;;
583;SDS011;27024;54.068;12.116;2023-08-01T05:06:33;5.43;;;3.25;;
583;SDS011;27024;54.068;12.116;2023-08-01T05:09:00;8.68;;;3.40;;
583;SDS011;27024;54.068;12.116;2023-08-01T05:11:26;8.30;;;3.83;;
583;SDS011;27024;54.068;12.116;2023-08-01T05:13:53;9.20;;;4.00;;
583;SDS011;27024;54.068;12.116;2023-08-01T05:16:20;7.40;;;3.90;;
583;SDS011;27024;54.068;12.116;2023-08-01T05:18:47;10.48;;;4.05;;
583;SDS011;27024;54.068;12.116;2023-08-01T05:21:14;9.48;;;4.40;;
583;SDS011;27024;54.068;12.116;2023-08-01T05:23:40;7.57;;;3.90;;
583;SDS011;27024;54.068;12.116;2023-08-01T05:26:07;6.20;;;4.30;;
583;SDS011;27024;54.068;12.116;2023-08-01T05:28:34;7.60;;;3.92;;
583;SDS011;27024;54.068;12.116;2023-08-01T05:31:01;8.20;;;4.35;;
583;SDS011;27024;54.068;12.116;2023-08-01T05:33:28;7.97;;;4.50;;
583;SDS011;27024;54.068;12.116;2023-08-01T05:35:55;6.22;;;3.92;;
583;SDS011;27024;54.068;12.116;2023-08-01T05:38:22;7.40;;;4.10;;
583;SDS011;27024;54.068;12.116;2023-08-01T05:40:49;9.02;;;4.95;;
583;SDS011;27024;54.068;12.116;2023-08-01T05:43:16;8.32;;;4.75;;
583;SDS011;27024;54.068;12.116;2023-08-01T05:45:43;9.07;;;4.60;;
583;SDS011;27024;54.068;12.116;2023-08-01T05:48:10;8.02;;;4.30;;
583;SDS011;27024;54.068;12.116;2023-08-01T05:50:37;6.90;;;4.25;;
583;SDS011;27024;54.068;12.116;2023-08-01T05:53:04;8.60;;;5.13;;
583;SDS011;27024;54.068;12.116;2023-08-01T05:55:32;9.77;;;4.95;;
583;SDS011;27024;54.068;12.116;2023-08-01T05:57:59;11.25;;;4.25;;
583;SDS011;27024;54.068;12.116;2023-08-01T06:00:27;8.38;;;4.68;;
583;SDS011;27024;54.068;12.116;2023-08-01T06:02:54;8.02;;;4.32;;
583;SDS011;27024;54.068;12.116;2023-08-01T06:05:22;10.80;;;4.40;;
583;SDS011;27024;54.068;12.116;2023-08-01T06:07:49;7.20;;;4.03;;
583;SDS011;27024;54.068;12.116;2023-08-01T06:10:15;6.30;;;4.40;;
583;SDS011;27024;54.068;12.116;2023-08-01T06:12:42;7.50;;;4.53;;
583;SDS011;27024;54.068;12.116;2023-08-01T06:15:09;7.88;;;4.97;;
583;SDS011;27024;54.068;12.116;2023-08-01T06:17:36;7.47;;;4.40;;
583;SDS011;27024;54.068;12.116;2023-08-01T06:20:03;7.10;;;4.53;;
583;SDS011;27024;54.068;12.116;2023-08-01T06:22:31;7.80;;;4.50;;
583;SDS011;27024;54.068;12.116;2023-08-01T06:24:58;6.75;;;4.35;;
583;SDS011;27024;54.068;12.116;2023-08-01T06:27:29;9.82;;;3.97;;
583;SDS011;27024;54.068;12.116;2023-08-01T06:29:56;6.97;;;4.13;;
583;SDS011;27024;54.068;12.116;2023-08-01T06:32:23;8.25;;;4.13;;
583;SDS011;27024;54.068;12.116;2023-08-01T06:34:50;7.10;;;3.95;;
583;SDS011;27024;54.068;12.116;2023-08-01T06:37:16;5.78;;;4.05;;
583;SDS011;27024;54.068;12.116;2023-08-01T06:39:43;7.05;;;3.97;;
583;SDS011;27024;54.068;12.116;2023-08-01T06:42:10;9.30;;;3.70;;
583;SDS011;27024;54.068;12.116;2023-08-01T06:44:37;7.40;;;4.00;;
583;SDS011;27024;54.068;12.116;2023-08-01T06:47:04;7.03;;;4.10;;
583;SDS011;27024;54.068;12.116;2023-08-01T06:49:31;8.93;;;3.80;;
583;SDS011;27024;54.068;12.116;2023-08-01T06:51:58;6.00;;;4.07;;
583;SDS011;27024;54.068;12.116;2023-08-01T06:54:25;6.28;;;3.75;;
583;SDS011;27024;54.068;12.116;2023-08-01T06:56:52;5.65;;;3.45;;
583;SDS011;27024;54.068;12.116;2023-08-01T06:59:18;8.45;;;3.78;;
583;SDS011;27024;54.068;12.116;2023-08-01T07:01:45;10.30;;;3.40;;
583;SDS011;27024;54.068;12.116;2023-08-01T07:04:13;6.53;;;3.22;;
583;SDS011;27024;54.068;12.116;2023-08-01T07:06:40;5.60;;;3.10;;
583;SDS011;27024;54.068;12.116;2023-08-01T07:09:07;6.50;;;3.25;;
583;SDS011;27024;54.068;12.116;2023-08-01T07:11:34;5.53;;;3.15;;
583;SDS011;27024;54.068;12.116;2023-08-01T07:14:01;7.60;;;3.53;;
583;SDS011;27024;54.068;12.116;2023-08-01T07:16:28;6.60;;;3.58;;
583;SDS011;27024;54.068;12.116;2023-08-01T07:18:55;6.03;;;3.35;;
583;SDS011;27024;54.068;12.116;2023-08-01T07:21:22;6.47;;;3.08;;
583;SDS011;27024;54.068;12.116;2023-08-01T07:23:49;5.40;;;2.90;;
583;SDS011;27024;54.068;12.116;2023-08-01T07:26:16;5.88;;;3.10;;
583;SDS011;27024;54.068;12.116;2023-08-01T07:28:43;5.35;;;3.00;;
583;SDS011;27024;54.068;12.116;2023-08-01T07:31:10;5.55;;;3.80;;
583;SDS011;27024;54.068;12.116;2023-08-01T07:33:36;5.32;;;3.60;;
583;SDS011;27024;54.068;12.116;2023-08-01T07:36:04;6.50;;;3.03;;
583;SDS011;27024;54.068;12.116;2023-08-01T07:38:31;5.18;;;3.13;;
583;SDS011;27024;54.068;12.116;2023-08-01T07:41:01;4.15;;;3.05;;
583;SDS011;27024;54.068;12.116;2023-08-01T07:43:30;5.45;;;3.28;;
583;SDS011;27024;54.068;12.116;2023-08-01T07:45:57;6.97;;;3.25;;
583;SDS011;27024;54.068;12.116;2023-08-01T07:48:24;4.40;;;3.10;;
583;SDS011;27024;54.068;12.116;2023-08-01T07:50:51;5.43;;;3.22;;
583;SDS011;27024;54.068;12.116;2023-08-01T07:53:18;5.40;;;3.05;;
583;SDS011;27024;54.068;12.116;2023-08-01T07:55:45;7.75;;;3.47;;
583;SDS011;27024;54.068;12.116;2023-08-01T07:58:12;5.07;;;3.20;;
583;SDS011;27024;54.068;12.116;2023-08-01T08:00:39;5.13;;;3.65;;
583;SDS011;27024;54.068;12.116;2023-08-01T08:03:06;6.10;;;3.25;;
583;SDS011;27024;54.068;12.116;2023-08-01T08:05:34;6.18;;;3.03;;
583;SDS011;27024;54.068;12.116;2023-08-01T08:08:05;5.43;;;2.67;;
583;SDS011;27024;54.068;12.116;2023-08-01T08:10:32;4.38;;;2.65;;
583;SDS011;27024;54.068;12.116;2023-08-01T08:12:59;3.95;;;2.47;;
583;SDS011;27024;54.068;12.116;2023-08-01T08:15:26;4.88;;;2.55;;
583;SDS011;27024;54.068;12.116;2023-08-01T08:17:53;5.35;;;2.50;;
583;SDS011;27024;54.068;12.116;2023-08-01T08:20:20;5.75;;;2.63;;
583;SDS011;27024;54.068;12.116;2023-08-01T08:22:47;8.15;;;2.70;;
583;SDS011;27024;54.068;12.116;2023-08-01T08:25:14;5.35;;;2.47;;
583;SDS011;27024;54.068;12.116;2023-08-01T08:27:40;7.18;;;2.90;;
583;SDS011;27024;54.068;12.116;2023-08-01T08:30:07;5.57;;;2.70;;
583;SDS011;27024;54.068;12.116;2023-08-01T08:32:35;5.43;;;3.22;;
583;SDS011;27024;54.068;12.116;2023-08-01T08:35:02;9.07;;;3.20;;
583;SDS011;27024;54.068;12.116;2023-08-01T08:37:29;4.93;;;2.97;;
583;SDS011;27024;54.068;12.116;2023-08-01T08:39:56;6.50;;;3.15;;
583;SDS011;27024;54.068;12.116;2023-08-01T08:42:23;7.18;;;3.13;;
583;SDS011;27024;54.068;12.116;2023-08-01T08:44:53;5.78;;;3.10;;
583;SDS011;27024;54.068;12.116;2023-08-01T08:47:24;7.78;;;3.00;;
583;SDS011;27024;54.068;12.116;2023-08-01T08:49:52;6.30;;;2.83;;
583;SDS011;27024;54.068;12.116;2023-08-01T08:52:25;7.25;;;2.75;;
583;SDS011;27024;54.068;12.116;2023-08-01T08:54:52;5.93;;;3.35;;
583;SDS011;27024;54.068;12.116;2023-08-01T08:57:20;7.22;;;3.25;;
583;SDS011;27024;54.068;12.116;2023-08-01T08:59:47;5.53;;;2.88;;
583;SDS011;27024;54.068;12.116;2023-08-01T09:02:14;5.88;;;2.78;;
583;SDS011;27024;54.068;12.116;2023-08-01T09:04:41;4.30;;;2.40;;
583;SDS011;27024;54.068;12.116;2023-08-01T09:07:09;8.00;;;2.83;;
583;SDS011;27024;54.068;12.116;2023-08-01T09:09:37;8.77;;;3.30;;
583;SDS011;27024;54.068;12.116;2023-08-01T09:12:04;8.40;;;3.00;;
583;SDS011;27024;54.068;12.116;2023-08-01T09:14:33;5.63;;;2.70;;
583;SDS011;27024;54.068;12.116;2023-08-01T09:17:10;5.10;;;2.50;;
583;SDS011;27024;54.068;12.116;2023-08-01T09:19:42;6.95;;;3.17;;
583;SDS011;27024;54.068;12.116;2023-08-01T09:22:13;5.45;;;2.80;;
583;SDS011;27024;54.068;12.116;2023-08-01T09:24:50;7.05;;;2.80;;
583;SDS011;27024;54.068;12.116;2023-08-01T09:27:17;6.70;;;2.78;;
583;SDS011;27024;54.068;12.116;2023-08-01T09:29:44;6.78;;;2.88;;
583;SDS011;27024;54.068;12.116;2023-08-01T09:32:14;6.90;;;2.72;;
583;SDS011;27024;54.068;12.116;2023-08-01T09:34:41;5.53;;;2.90;;
583;SDS011;27024;54.068;12.116;2023-08-01T09:37:09;5.15;;;2.67;;
583;SDS011;27024;54.068;12.116;2023-08-01T09:39:36;4.25;;;2.47;;
583;SDS011;27024;54.068;12.116;2023-08-01T09:42:03;5.35;;;2.67;;
583;SDS011;27024;54.068;12.116;2023-08-01T09:44:30;4.95;;;2.65;;
583;SDS011;27024;54.068;12.116;2023-08-01T09:49:26;4.63;;;2.67;;
583;SDS011;27024;54.068;12.116;2023-08-01T09:51:54;6.22;;;2.58;;
583;SDS011;27024;54.068;12.116;2023-08-01T09:54:21;7.05;;;2.88;;
583;SDS011;27024;54.068;12.116;2023-08-01T09:56:49;5.38;;;3.35;;
583;SDS011;27024;54.068;12.116;2023-08-01T09:59:21;7.40;;;3.92;;
583;SDS011;27024;54.068;12.116;2023-08-01T10:01:53;5.20;;;3.10;;
583;SDS011;27024;54.068;12.116;2023-08-01T10:04:21;6.40;;;3.85;;
583;SDS011;27024;54.068;12.116;2023-08-01T10:07:03;7.97;;;3.75;;
583;SDS011;27024;54.068;12.116;2023-08-01T10:09:34;6.32;;;3.47;;
583;SDS011;27024;54.068;12.116;2023-08-01T10:12:02;8.68;;;3.22;;
583;SDS011;27024;54.068;12.116;2023-08-01T10:14:32;6.95;;;3.50;;
583;SDS011;27024;54.068;12.116;2023-08-01T10:16:59;7.70;;;3.70;;
583;SDS011;27024;54.068;12.116;2023-08-01T10:19:29;7.07;;;3.10;;
583;SDS011;27024;54.068;12.116;2023-08-01T10:24:27;4.43;;;2.47;;
583;SDS011;27024;54.068;12.116;2023-08-01T10:26:55;7.05;;;2.72;;
583;SDS011;27024;54.068;12.116;2023-08-01T10:29:22;4.70;;;2.22;;
583;SDS011;27024;54.068;12.116;2023-08-01T10:32:00;5.88;;;2.42;;
583;SDS011;27024;54.068;12.116;2023-08-01T10:34:27;6.65;;;2.70;;
583;SDS011;27024;54.068;12.116;2023-08-01T10:36:55;4.28;;;2.33;;
583;SDS011;27024;54.068;12.116;2023-08-01T10:39:23;6.90;;;2.45;;
583;SDS011;27024;54.068;12.116;2023-08-01T10:42:04;4.95;;;2.72;;
583;SDS011;27024;54.068;12.116;2023-08-01T10:44:32;6.88;;;2.85;;
583;SDS011;27024;54.068;12.116;2023-08-01T10:47:01;4.68;;;2.45;;
583;SDS011;27024;54.068;12.116;2023-08-01T10:55:01;7.00;;;2.50;;
583;SDS011;27024;54.068;12.116;2023-08-01T10:57:30;4.60;;;2.10;;
583;SDS011;27024;54.068;12.116;2023-08-01T10:59:58;5.60;;;2.50;;
583;SDS011;27024;54.068;12.116;2023-08-01T11:02:26;7.93;;;2.55;;
583;SDS011;27024;54.068;12.116;2023-08-01T11:04:59;5.82;;;2.17;;
583;SDS011;27024;54.068;12.116;2023-08-01T11:07:36;5.13;;;2.17;;
583;SDS011;27024;54.068;12.116;2023-08-01T11:12:35;5.72;;;1.85;;
583;SDS011;27024;54.068;12.116;2023-08-01T11:15:03;4.55;;;1.98;;
583;SDS011;27024;54.068;12.116;2023-08-01T11:17:36;3.28;;;1.67;;
583;SDS011;27024;54.068;12.116;2023-08-01T11:20:05;7.13;;;2.10;;
583;SDS011;27024;54.068;12.116;2023-08-01T11:22:38;8.23;;;2.70;;
583;SDS011;27024;54.068;12.116;2023-08-01T11:25:16;3.88;;;2.13;;
583;SDS011;27024;54.068;12.116;2023-08-01T11:27:44;6.57;;;2.58;;
583;SDS011;27024;54.068;12.116;2023-08-01T11:30:11;5.45;;;2.00;;
583;SDS011;27024;54.068;12.116;2023-08-01T11:32:39;6.88;;;2.55;;
583;SDS011;27024;54.068;12.116;2023-08-01T11:35:07;4.57;;;2.00;;
583;SDS011;27024;54.068;12.116;2023-08-01T11:37:34;6.03;;;2.20;;
583;SDS011;27024;54.068;12.116;2023-08-01T11:40:02;4.50;;;1.88;;
583;SDS011;27024;54.068;12.116;2023-08-01T11:42:30;5.47;;;1.95;;
583;SDS011;27024;54.068;12.116;2023-08-01T11:45:09;5.65;;;1.77;;
583;SDS011;27024;54.068;12.116;2023-08-01T11:47:46;4.00;;;1.88;;
583;SDS011;27024;54.068;12.116;2023-08-01T11:50:19;5.35;;;2.25;;
583;SDS011;27024;54.068;12.116;2023-08-01T11:52:49;4.65;;;1.65;;
583;SDS011;27024;54.068;12.116;2023-08-01T11:55:19;4.15;;;1.33;;
583;SDS011;27024;54.068;12.116;2023-08-01T11:57:55;3.20;;;1.50;;
583;SDS011;27024;54.068;12.116;2023-08-01T12:00:28;3.42;;;1.50;;
583;SDS011;27024;54.068;12.116;2023-08-01T12:03:08;5.25;;;1.75;;
583;SDS011;27024;54.068;12.116;2023-08-01T12:05:40;7.47;;;1.83;;
583;SDS011;27024;54.068;12.116;2023-08-01T12:08:15;4.20;;;1.42;;
583;SDS011;27024;54.068;12.116;2023-08-01T12:10:44;3.72;;;1.50;;
583;SDS011;27024;54.068;12.116;2023-08-01T12:13:22;3.03;;;1.20;;
583;SDS011;27024;54.068;12.116;2023-08-01T12:18:21;3.30;;;1.40;;
583;SDS011;27024;54.068;12.116;2023-08-01T12:20:54;6.20;;;1.30;;
583;SDS011;27024;54.068;12.116;2023-08-01T12:23:23;5.28;;;1.50;;
583;SDS011;27024;54.068;12.116;2023-08-01T12:25:50;8.27;;;1.40;;
583;SDS011;27024;54.068;12.116;2023-08-01T12:28:18;5.20;;;1.58;;
583;SDS011;27024;54.068;12.116;2023-08-01T12:30:45;5.88;;;1.40;;
583;SDS011;27024;54.068;12.116;2023-08-01T12:33:12;4.72;;;1.60;;
583;SDS011;27024;54.068;12.116;2023-08-01T12:35:40;4.90;;;1.48;;
583;SDS011;27024;54.068;12.116;2023-08-01T12:38:08;10.88;;;1.92;;
583;SDS011;27024;54.068;12.116;2023-08-01T12:40:36;8.15;;;1.70;;
583;SDS011;27024;54.068;12.116;2023-08-01T12:43:04;7.32;;;1.50;;
583;SDS011;27024;54.068;12.116;2023-08-01T12:45:32;8.10;;;1.35;;
583;SDS011;27024;54.068;12.116;2023-08-01T12:47:59;4.32;;;1.20;;
583;SDS011;27024;54.068;12.116;2023-08-01T12:50:28;4.95;;;1.30;;
583;SDS011;27024;54.068;12.116;2023-08-01T12:52:56;6.82;;;1.10;;
583;SDS011;27024;54.068;12.116;2023-08-01T12:55:23;3.55;;;1.23;;
583;SDS011;27024;54.068;12.116;2023-08-01T12:57:50;5.38;;;1.40;;
583;SDS011;27024;54.068;12.116;2023-08-01T13:00:19;7.43;;;1.70;;
583;SDS011;27024;54.068;12.116;2023-08-01T13:02:46;5.13;;;1.38;;
583;SDS011;27024;54.068;12.116;2023-08-01T13:05:16;6.25;;;1.65;;
583;SDS011;27024;54.068;12.116;2023-08-01T13:07:44;7.82;;;2.03;;
583;SDS011;27024;54.068;12.116;2023-08-01T13:10:12;5.72;;;2.10;;
583;SDS011;27024;54.068;12.116;2023-08-01T13:12:42;4.75;;;2.33;;
583;SDS011;27024;54.068;12.116;2023-08-01T13:15:10;6.97;;;2.47;;
583;SDS011;27024;54.068;12.116;2023-08-01T13:17:43;4.72;;;2.30;;
583;SDS011;27024;54.068;12.116;2023-08-01T13:20:11;5.90;;;2.10;;
583;SDS011;27024;54.068;12.116;2023-08-01T13:22:42;5.85;;;2.33;;
583;SDS011;27024;54.068;12.116;2023-08-01T13:25:12;6.55;;;2.08;;
583;SDS011;27024;54.068;12.116;2023-08-01T13:27:40;8.70;;;2.47;;
583;SDS011;27024;54.068;12.116;2023-08-01T13:30:07;5.18;;;2.00;;
583;SDS011;27024;54.068;12.116;2023-08-01T13:32:35;6.22;;;2.40;;
583;SDS011;27024;54.068;12.116;2023-08-01T13:35:04;5.40;;;2.08;;
583;SDS011;27024;54.068;12.116;2023-08-01T13:37:31;5.10;;;2.63;;
583;SDS011;27024;54.068;12.116;2023-08-01T13:39:58;5.65;;;2.20;;
583;SDS011;27024;54.068;12.116;2023-08-01T13:42:27;6.10;;;2.70;;
583;SDS011;27024;54.068;12.116;2023-08-01T13:44:54;7.63;;;2.38;;
583;SDS011;27024;54.068;12.116;2023-08-01T13:47:22;5.50;;;2.50;;
583;SDS011;27024;54.068;12.116;2023-08-01T13:49:49;3.55;;;1.85;;
583;SDS011;27024;54.068;12.116;2023-08-01T13:52:17;5.45;;;1.92;;
583;SDS011;27024;54.068;12.116;2023-08-01T13:54:44;4.95;;;1.35;;
583;SDS011;27024;54.068;12.116;2023-08-01T13:57:12;4.90;;;1.05;;
583;SDS011;27024;54.068;12.116;2023-08-01T13:59:38;4.68;;;1.00;;
583;SDS011;27024;54.068;12.116;2023-08-01T14:02:06;4.93;;;0.93;;
583;SDS011;27024;54.068;12.116;2023-08-01T14:04:35;4.25;;;0.80;;
583;SDS011;27024;54.068;12.116;2023-08-01T14:07:03;3.88;;;0.90;;
583;SDS011;27024;54.068;12.116;2023-08-01T14:09:30;3.83;;;0.80;;
583;SDS011;27024;54.068;12.116;2023-08-01T14:11:59;3.88;;;1.13;;
583;SDS011;27024;54.068;12.116;2023-08-01T14:14:26;3.58;;;0.70;;
583;SDS011;27024;54.068;12.116;2023-08-01T14:16:53;3.17;;;0.68;;
583;SDS011;27024;54.068;12.116;2023-08-01T14:19:21;5.03;;;0.88;;
583;SDS011;27024;54.068;12.116;2023-08-01T14:21:48;2.85;;;0.68;;
583;SDS011;27024;54.068;12.116;2023-08-01T14:24:15;3.50;;;0.68;;
583;SDS011;27024;54.068;12.116;2023-08-01T14:26:42;3.70;;;0.90;;
583;SDS011;27024;54.068;12.116;2023-08-01T14:29:10;4.75;;;0.60;;
583;SDS011;27024;54.068;12.116;2023-08-01T14:31:37;5.03;;;0.65;;
583;SDS011;27024;54.068;12.116;2023-08-01T14:34:04;4.68;;;0.80;;
583;SDS011;27024;54.068;12.116;2023-08-01T14:36:31;5.13;;;0.60;;
583;SDS011;27024;54.068;12.116;2023-08-01T14:38:58;5.45;;;0.60;;
583;SDS011;27024;54.068;12.116;2023-08-01T14:41:38;2.97;;;1.17;;
583;SDS011;27024;54.068;12.116;2023-08-01T14:44:25;4.60;;;0.50;;
583;SDS011;27024;54.068;12.116;2023-08-01T14:46:52;3.70;;;0.88;;
583;SDS011;27024;54.068;12.116;2023-08-01T14:49:20;4.55;;;0.73;;
583;SDS011;27024;54.068;12.116;2023-08-01T14:51:48;2.20;;;0.60;;
583;SDS011;27024;54.068;12.116;2023-08-01T14:54:18;3.92;;;0.55;;
583;SDS011;27024;54.068;12.116;2023-08-01T14:57:04;3.75;;;0.60;;
583;SDS011;27024;54.068;12.116;2023-08-01T14:59:31;1.63;;;0.40;;
583;SDS011;27024;54.068;12.116;2023-08-01T15:01:58;2.25;;;0.40;;
583;SDS011;27024;54.068;12.116;2023-08-01T15:04:25;3.80;;;0.50;;
583;SDS011;27024;54.068;12.116;2023-08-01T15:06:54;1.65;;;0.45;;
583;SDS011;27024;54.068;12.116;2023-08-01T15:09:21;1.98;;;0.40;;
583;SDS011;27024;54.068;12.116;2023-08-01T15:11:48;3.22;;;0.65;;
583;SDS011;27024;54.068;12.116;2023-08-01T15:14:15;1.73;;;0.43;;
583;SDS011;27024;54.068;12.116;2023-08-01T15:16:42;3.05;;;0.57;;
583;SDS011;27024;54.068;12.116;2023-08-01T15:19:10;5.45;;;0.95;;
583;SDS011;27024;54.068;12.116;2023-08-01T15:21:37;2.55;;;0.63;;